Currently 48°F in Pinon Hills, California, USA
48°F
58°F / 48°F
3 mph SW
0.00"
Monday, April 12, 2021 6:17 AM PDT

Pinon Hills, California Weather Summary
Last 36 Hours

Temperature Winds Hourly Humidity Dewpoint
Time Report Norm Report Norm Max Gusts Precip. Rpt. Norm Rpt. Norm Pressure
1,3Mon 06:17 AM  48.4°F  48°F  3 mph SW  3 mph  4 mph  0.00"  34%  51%  20°F  30°F  29.91"
Mon 06:00 AM  50.1°F  48°F  2 mph SW  3 mph  5 mph  0.00"  34%  51%  22°F  30°F  29.91"
Mon 05:00 AM  49.3°F  49°F  2 mph SW  3 mph  4 mph  0.00"  42%  50%  26°F  30°F  29.90"
Mon 04:00 AM  51.5°F  49°F  2 mph S  3 mph  3 mph  0.00"  39%  51%  26°F  31°F  29.90"
Mon 03:00 AM  52.6°F  50°F  calm  3 mph  4 mph  0.00"  37%  50%  26°F  31°F  29.90"
Mon 02:00 AM  55.3°F  51°F  calm  3 mph  5 mph  0.00"  35%  48%  27°F  31°F  29.91"
Mon 01:00 AM  53.6°F  51°F  3 mph SW  3 mph  5 mph  0.00"  34%  48%  24°F  31°F  29.92"
2Mon 12:00 AM  58.4°F  51°F  calm  3 mph  10 mph  0.00"  36%  48%  31°F  31°F  29.92"
Sun 11:00 PM  61.7°F  52°F  4 mph NW  3 mph  8 mph  0.00"  35%  47%  33°F  32°F  29.91"
Sun 10:00 PM  56.9°F  53°F  calm  3 mph  4 mph  0.00"  41%  46%  33°F  32°F  29.92"
Sun 09:00 PM  59.8°F  54°F  calm  4 mph  5 mph  0.00"  36%  45%  32°F  33°F  29.91"
Sun 08:00 PM  64.6°F  55°F  1 mph NW  4 mph  12 mph  0.00"  28%  44%  29°F  33°F  29.89"
Sun 07:00 PM  71.4°F  59°F  5 mph W  4 mph  12 mph  0.00"  17%  40%  22°F  34°F  29.87"
Sun 06:00 PM  75.4°F  62°F  1 mph N  5 mph  12 mph  0.00"  13%  36%  18°F  34°F  29.87"
Sun 05:00 PM  76.5°F  64°F  6 mph SW  5 mph  10 mph  0.00"  10%  33%  14°F  33°F  29.87"
Sun 04:00 PM  77.9°F  65°F  2 mph E  5 mph  9 mph  0.00"  11%  31%  16°F  33°F  29.89"
Sun 03:00 PM  76.6°F  66°F  2 mph SE  5 mph  11 mph  0.00"  11%  32%  17°F  34°F  29.91"
Sun 02:00 PM  73.9°F  65°F  2 mph N  4 mph  12 mph  0.00"  13%  32%  19°F  33°F  29.93"
Sun 01:00 PM  71.0°F  64°F  6 mph NE  4 mph  10 mph  0.00"  17%  34%  22°F  34°F  29.96"
Sun 12:00 PM  68.8°F  62°F  calm  4 mph  6 mph  0.00"  22%  36%  27°F  34°F  29.99"
Sun 11:00 AM  65.6°F  61°F  2 mph NW  5 mph  6 mph  0.00"  24%  38%  27°F  34°F  30.00"
Sun 10:00 AM  64.0°F  59°F  2 mph NW  4 mph  7 mph  0.00"  28%  41%  29°F  34°F  30.00"
Sun 09:00 AM  60.9°F  57°F  3 mph NW  4 mph  6 mph  0.00"  30%  43%  28°F  34°F  30.00"
Sun 08:00 AM  56.0°F  54°F  calm  3 mph  3 mph  0.00"  31%  48%  25°F  34°F  29.99"
Sun 07:00 AM  49.7°F  49°F  1 mph SW  3 mph  4 mph  0.00"  33%  51%  20°F  31°F  29.98"
Sun 06:00 AM  51.3°F  48°F  2 mph SW  2 mph  7 mph  0.00"  29%  53%  19°F  31°F  29.97"
Sun 05:00 AM  51.7°F  49°F  2 mph SW  3 mph  6 mph  0.00"  28%  52%  18°F  31°F  29.95"
Sun 04:00 AM  51.2°F  49°F  2 mph SW  3 mph  6 mph  0.00"  26%  53%  16°F  32°F  29.95"
Sun 03:00 AM  50.0°F  50°F  2 mph SW  3 mph  5 mph  0.00"  28%  51%  16°F  32°F  29.96"
Sun 02:00 AM  50.5°F  51°F  calm  3 mph  7 mph  0.00"  28%  49%  17°F  31°F  29.98"
Sun 01:00 AM  51.9°F  51°F  2 mph SW  4 mph  7 mph  0.00"  27%  48%  17°F  31°F  30.00"
Sun 12:00 AM  54.5°F  51°F  5 mph SW  3 mph  8 mph  0.00"  29%  48%  22°F  32°F  30.01"
Sat 11:00 PM  50.5°F  52°F  2 mph NW  3 mph  3 mph  0.00"  35%  48%  22°F  32°F  30.01"
Sat 10:00 PM  53.7°F  53°F  calm  3 mph  5 mph  0.00"  31%  46%  22°F  32°F  30.02"
Sat 09:00 PM  57.2°F  54°F  1 mph NW  4 mph  9 mph  0.00"  22%  46%  17°F  33°F  30.01"
Sat 08:00 PM  61.0°F  55°F  2 mph W  4 mph  13 mph  0.00"  16%  45%  12°F  34°F  29.99"
Sat 07:00 PM  64.9°F  59°F  7 mph W  4 mph  17 mph  0.00"  16%  41%  16°F  35°F  29.99"

  1. Current weather data. No green row appears if the current weather data is also the high or low for the current day.
  2. High temperature for the current day.
  3. Low temperature for the current day.

The Pinon Hills, California weather pages are a service of WeatherCurrents.
Copyright ©2021  WeatherCurrents. All rights reserved. - Submit questions and comments - Privacy Policy

This page automatically refreshes every 10 minutes.